sensor_id;sensor_type;location;lat;lon;timestamp;P1;durP1;ratioP1;P2;durP2;ratioP2
15697;SDS011;7949;48.726;9.102;2022-12-20T00:01:42;12.50;;;7.27;;
15697;SDS011;7949;48.726;9.102;2022-12-20T00:04:09;13.17;;;7.30;;
15697;SDS011;7949;48.726;9.102;2022-12-20T00:06:36;11.27;;;6.87;;
15697;SDS011;7949;48.726;9.102;2022-12-20T00:09:06;13.43;;;7.10;;
15697;SDS011;7949;48.726;9.102;2022-12-20T00:11:33;10.13;;;6.40;;
15697;SDS011;7949;48.726;9.102;2022-12-20T00:14:03;9.30;;;5.60;;
15697;SDS011;7949;48.726;9.102;2022-12-20T00:16:30;11.47;;;6.10;;
15697;SDS011;7949;48.726;9.102;2022-12-20T00:18:58;10.27;;;5.80;;
15697;SDS011;7949;48.726;9.102;2022-12-20T00:21:27;12.27;;;7.47;;
15697;SDS011;7949;48.726;9.102;2022-12-20T00:23:55;12.80;;;7.00;;
15697;SDS011;7949;48.726;9.102;2022-12-20T00:26:24;11.20;;;6.70;;
15697;SDS011;7949;48.726;9.102;2022-12-20T00:28:53;9.97;;;7.00;;
15697;SDS011;7949;48.726;9.102;2022-12-20T00:31:21;12.27;;;7.50;;
15697;SDS011;7949;48.726;9.102;2022-12-20T00:33:49;14.07;;;6.90;;
15697;SDS011;7949;48.726;9.102;2022-12-20T00:36:19;12.60;;;7.40;;
15697;SDS011;7949;48.726;9.102;2022-12-20T00:38:47;11.97;;;7.07;;
15697;SDS011;7949;48.726;9.102;2022-12-20T00:41:16;13.47;;;8.13;;
15697;SDS011;7949;48.726;9.102;2022-12-20T00:43:46;11.67;;;6.30;;
15697;SDS011;7949;48.726;9.102;2022-12-20T00:46:14;12.57;;;6.33;;
15697;SDS011;7949;48.726;9.102;2022-12-20T00:48:42;9.20;;;5.97;;
15697;SDS011;7949;48.726;9.102;2022-12-20T00:51:10;9.47;;;4.63;;
15697;SDS011;7949;48.726;9.102;2022-12-20T00:53:38;7.17;;;3.97;;
15697;SDS011;7949;48.726;9.102;2022-12-20T00:56:05;9.27;;;4.40;;
15697;SDS011;7949;48.726;9.102;2022-12-20T00:58:33;9.57;;;5.40;;
15697;SDS011;7949;48.726;9.102;2022-12-20T01:01:03;8.20;;;5.43;;
15697;SDS011;7949;48.726;9.102;2022-12-20T01:03:31;15.87;;;7.27;;
15697;SDS011;7949;48.726;9.102;2022-12-20T01:05:58;16.03;;;8.80;;
15697;SDS011;7949;48.726;9.102;2022-12-20T01:08:27;14.57;;;8.63;;
15697;SDS011;7949;48.726;9.102;2022-12-20T01:10:58;15.87;;;9.00;;
15697;SDS011;7949;48.726;9.102;2022-12-20T01:13:26;16.97;;;8.83;;
15697;SDS011;7949;48.726;9.102;2022-12-20T01:15:53;14.30;;;8.67;;
15697;SDS011;7949;48.726;9.102;2022-12-20T01:18:21;13.80;;;8.43;;
15697;SDS011;7949;48.726;9.102;2022-12-20T01:20:48;20.23;;;10.27;;
15697;SDS011;7949;48.726;9.102;2022-12-20T01:23:21;14.97;;;9.50;;
15697;SDS011;7949;48.726;9.102;2022-12-20T01:25:49;14.53;;;8.63;;
15697;SDS011;7949;48.726;9.102;2022-12-20T01:28:16;14.67;;;8.70;;
15697;SDS011;7949;48.726;9.102;2022-12-20T01:30:43;13.93;;;8.63;;
15697;SDS011;7949;48.726;9.102;2022-12-20T01:33:10;14.73;;;9.17;;
15697;SDS011;7949;48.726;9.102;2022-12-20T01:35:38;16.97;;;8.57;;
15697;SDS011;7949;48.726;9.102;2022-12-20T01:38:04;15.27;;;9.37;;
15697;SDS011;7949;48.726;9.102;2022-12-20T01:40:31;12.77;;;6.30;;
15697;SDS011;7949;48.726;9.102;2022-12-20T01:42:58;18.73;;;7.43;;
15697;SDS011;7949;48.726;9.102;2022-12-20T01:45:26;10.20;;;5.27;;
15697;SDS011;7949;48.726;9.102;2022-12-20T01:47:55;7.67;;;4.87;;
15697;SDS011;7949;48.726;9.102;2022-12-20T01:50:23;11.63;;;5.03;;
15697;SDS011;7949;48.726;9.102;2022-12-20T01:52:52;9.10;;;4.97;;
15697;SDS011;7949;48.726;9.102;2022-12-20T01:55:20;7.97;;;4.83;;
15697;SDS011;7949;48.726;9.102;2022-12-20T01:57:51;7.17;;;4.00;;
15697;SDS011;7949;48.726;9.102;2022-12-20T02:00:21;6.87;;;3.70;;
15697;SDS011;7949;48.726;9.102;2022-12-20T02:02:48;8.30;;;4.23;;
15697;SDS011;7949;48.726;9.102;2022-12-20T02:05:16;6.77;;;4.17;;
15697;SDS011;7949;48.726;9.102;2022-12-20T02:07:46;9.23;;;5.20;;
15697;SDS011;7949;48.726;9.102;2022-12-20T02:10:16;12.47;;;6.70;;
15697;SDS011;7949;48.726;9.102;2022-12-20T02:12:46;18.67;;;10.13;;
15697;SDS011;7949;48.726;9.102;2022-12-20T02:15:16;23.47;;;12.80;;
15697;SDS011;7949;48.726;9.102;2022-12-20T02:17:59;22.20;;;11.50;;
15697;SDS011;7949;48.726;9.102;2022-12-20T02:20:53;19.83;;;12.20;;
15697;SDS011;7949;48.726;9.102;2022-12-20T02:23:44;21.23;;;11.97;;
15697;SDS011;7949;48.726;9.102;2022-12-20T02:26:35;21.30;;;11.87;;
15697;SDS011;7949;48.726;9.102;2022-12-20T02:29:20;19.73;;;11.77;;
15697;SDS011;7949;48.726;9.102;2022-12-20T02:31:59;26.43;;;13.33;;
15697;SDS011;7949;48.726;9.102;2022-12-20T02:34:30;23.43;;;12.97;;
15697;SDS011;7949;48.726;9.102;2022-12-20T02:36:58;17.00;;;9.53;;
15697;SDS011;7949;48.726;9.102;2022-12-20T02:39:25;15.93;;;9.17;;
15697;SDS011;7949;48.726;9.102;2022-12-20T02:41:55;11.53;;;6.77;;
15697;SDS011;7949;48.726;9.102;2022-12-20T02:44:27;13.67;;;7.57;;
15697;SDS011;7949;48.726;9.102;2022-12-20T02:47:16;15.67;;;7.40;;
15697;SDS011;7949;48.726;9.102;2022-12-20T02:49:46;11.00;;;5.60;;
15697;SDS011;7949;48.726;9.102;2022-12-20T02:52:15;10.47;;;6.67;;
15697;SDS011;7949;48.726;9.102;2022-12-20T02:54:45;8.33;;;5.73;;
15697;SDS011;7949;48.726;9.102;2022-12-20T02:57:13;11.97;;;6.47;;
15697;SDS011;7949;48.726;9.102;2022-12-20T02:59:46;11.10;;;5.80;;
15697;SDS011;7949;48.726;9.102;2022-12-20T03:02:21;13.27;;;7.27;;
15697;SDS011;7949;48.726;9.102;2022-12-20T03:04:49;14.83;;;6.87;;
15697;SDS011;7949;48.726;9.102;2022-12-20T03:07:17;12.33;;;7.07;;
15697;SDS011;7949;48.726;9.102;2022-12-20T03:09:44;14.73;;;7.50;;
15697;SDS011;7949;48.726;9.102;2022-12-20T03:12:11;12.83;;;7.37;;
15697;SDS011;7949;48.726;9.102;2022-12-20T03:14:40;10.13;;;6.10;;
15697;SDS011;7949;48.726;9.102;2022-12-20T03:17:07;7.27;;;4.40;;
15697;SDS011;7949;48.726;9.102;2022-12-20T03:19:35;6.03;;;3.73;;
15697;SDS011;7949;48.726;9.102;2022-12-20T03:22:02;5.23;;;3.20;;
15697;SDS011;7949;48.726;9.102;2022-12-20T03:24:29;8.30;;;3.40;;
15697;SDS011;7949;48.726;9.102;2022-12-20T03:26:56;4.63;;;2.63;;
15697;SDS011;7949;48.726;9.102;2022-12-20T03:29:23;4.97;;;2.60;;
15697;SDS011;7949;48.726;9.102;2022-12-20T03:31:50;4.03;;;2.57;;
15697;SDS011;7949;48.726;9.102;2022-12-20T03:34:17;3.77;;;2.30;;
15697;SDS011;7949;48.726;9.102;2022-12-20T03:36:45;3.60;;;2.60;;
15697;SDS011;7949;48.726;9.102;2022-12-20T03:39:11;7.40;;;2.87;;
15697;SDS011;7949;48.726;9.102;2022-12-20T03:41:38;6.50;;;3.13;;
15697;SDS011;7949;48.726;9.102;2022-12-20T03:44:05;4.20;;;2.50;;
15697;SDS011;7949;48.726;9.102;2022-12-20T03:46:32;4.97;;;2.40;;
15697;SDS011;7949;48.726;9.102;2022-12-20T03:48:59;5.00;;;2.57;;
15697;SDS011;7949;48.726;9.102;2022-12-20T03:51:25;4.53;;;2.20;;
15697;SDS011;7949;48.726;9.102;2022-12-20T03:53:54;3.77;;;2.20;;
15697;SDS011;7949;48.726;9.102;2022-12-20T03:56:20;4.90;;;2.40;;
15697;SDS011;7949;48.726;9.102;2022-12-20T03:58:47;3.80;;;2.53;;
15697;SDS011;7949;48.726;9.102;2022-12-20T04:01:18;4.43;;;2.33;;
15697;SDS011;7949;48.726;9.102;2022-12-20T04:03:46;5.77;;;2.47;;
15697;SDS011;7949;48.726;9.102;2022-12-20T04:06:13;5.17;;;2.53;;
15697;SDS011;7949;48.726;9.102;2022-12-20T04:08:40;4.10;;;2.30;;
15697;SDS011;7949;48.726;9.102;2022-12-20T04:11:08;5.00;;;2.50;;
15697;SDS011;7949;48.726;9.102;2022-12-20T04:13:42;5.57;;;2.30;;
15697;SDS011;7949;48.726;9.102;2022-12-20T04:16:09;5.47;;;2.63;;
15697;SDS011;7949;48.726;9.102;2022-12-20T04:18:36;4.77;;;2.70;;
15697;SDS011;7949;48.726;9.102;2022-12-20T04:21:03;4.47;;;2.50;;
15697;SDS011;7949;48.726;9.102;2022-12-20T04:23:31;4.27;;;2.90;;
15697;SDS011;7949;48.726;9.102;2022-12-20T04:25:58;4.00;;;2.50;;
15697;SDS011;7949;48.726;9.102;2022-12-20T04:28:27;4.47;;;2.43;;
15697;SDS011;7949;48.726;9.102;2022-12-20T04:30:53;6.70;;;2.43;;
15697;SDS011;7949;48.726;9.102;2022-12-20T04:33:20;3.47;;;2.13;;
15697;SDS011;7949;48.726;9.102;2022-12-20T04:35:47;4.77;;;2.43;;
15697;SDS011;7949;48.726;9.102;2022-12-20T04:38:14;2.67;;;1.87;;
15697;SDS011;7949;48.726;9.102;2022-12-20T04:40:42;5.37;;;2.10;;
15697;SDS011;7949;48.726;9.102;2022-12-20T04:43:08;2.87;;;1.77;;
15697;SDS011;7949;48.726;9.102;2022-12-20T04:45:37;3.73;;;1.70;;
15697;SDS011;7949;48.726;9.102;2022-12-20T04:48:04;5.30;;;2.50;;
15697;SDS011;7949;48.726;9.102;2022-12-20T04:50:30;3.80;;;2.03;;
15697;SDS011;7949;48.726;9.102;2022-12-20T04:52:57;4.77;;;1.97;;
15697;SDS011;7949;48.726;9.102;2022-12-20T04:55:41;4.70;;;2.60;;
15697;SDS011;7949;48.726;9.102;2022-12-20T04:58:08;3.40;;;2.10;;
15697;SDS011;7949;48.726;9.102;2022-12-20T05:00:37;3.00;;;1.80;;
15697;SDS011;7949;48.726;9.102;2022-12-20T05:03:04;3.53;;;2.23;;
15697;SDS011;7949;48.726;9.102;2022-12-20T05:05:33;4.23;;;2.17;;
15697;SDS011;7949;48.726;9.102;2022-12-20T05:08:00;4.13;;;2.30;;
15697;SDS011;7949;48.726;9.102;2022-12-20T05:10:27;4.27;;;2.40;;
15697;SDS011;7949;48.726;9.102;2022-12-20T05:12:54;2.53;;;1.93;;
15697;SDS011;7949;48.726;9.102;2022-12-20T05:15:21;4.23;;;2.53;;
15697;SDS011;7949;48.726;9.102;2022-12-20T05:17:49;3.53;;;1.90;;
15697;SDS011;7949;48.726;9.102;2022-12-20T05:20:16;5.23;;;2.20;;
15697;SDS011;7949;48.726;9.102;2022-12-20T05:22:43;3.77;;;2.10;;
15697;SDS011;7949;48.726;9.102;2022-12-20T05:25:27;6.30;;;2.47;;
15697;SDS011;7949;48.726;9.102;2022-12-20T05:28:11;5.53;;;2.47;;
15697;SDS011;7949;48.726;9.102;2022-12-20T05:30:38;3.70;;;2.50;;
15697;SDS011;7949;48.726;9.102;2022-12-20T05:33:06;4.17;;;2.50;;
15697;SDS011;7949;48.726;9.102;2022-12-20T05:35:33;3.93;;;2.50;;
15697;SDS011;7949;48.726;9.102;2022-12-20T05:38:00;3.97;;;2.47;;
15697;SDS011;7949;48.726;9.102;2022-12-20T05:40:27;3.77;;;2.47;;
15697;SDS011;7949;48.726;9.102;2022-12-20T05:42:54;4.03;;;2.90;;
15697;SDS011;7949;48.726;9.102;2022-12-20T05:45:21;5.90;;;2.77;;
15697;SDS011;7949;48.726;9.102;2022-12-20T05:47:48;4.50;;;2.37;;
15697;SDS011;7949;48.726;9.102;2022-12-20T05:50:16;4.90;;;2.90;;
15697;SDS011;7949;48.726;9.102;2022-12-20T05:52:43;4.87;;;2.47;;
15697;SDS011;7949;48.726;9.102;2022-12-20T05:55:10;3.37;;;2.00;;
15697;SDS011;7949;48.726;9.102;2022-12-20T05:57:37;5.73;;;3.03;;
15697;SDS011;7949;48.726;9.102;2022-12-20T06:00:05;5.93;;;2.90;;
15697;SDS011;7949;48.726;9.102;2022-12-20T06:02:35;6.23;;;3.20;;
15697;SDS011;7949;48.726;9.102;2022-12-20T06:05:02;4.53;;;2.33;;
15697;SDS011;7949;48.726;9.102;2022-12-20T06:07:31;3.60;;;2.50;;
15697;SDS011;7949;48.726;9.102;2022-12-20T06:09:58;4.73;;;2.67;;
15697;SDS011;7949;48.726;9.102;2022-12-20T06:12:24;4.90;;;2.70;;
15697;SDS011;7949;48.726;9.102;2022-12-20T06:14:51;4.73;;;2.90;;
15697;SDS011;7949;48.726;9.102;2022-12-20T06:17:18;4.83;;;2.60;;
15697;SDS011;7949;48.726;9.102;2022-12-20T06:19:45;4.17;;;2.53;;
15697;SDS011;7949;48.726;9.102;2022-12-20T06:22:14;3.97;;;2.40;;
15697;SDS011;7949;48.726;9.102;2022-12-20T06:24:42;4.80;;;2.90;;
15697;SDS011;7949;48.726;9.102;2022-12-20T06:27:09;5.10;;;3.13;;
15697;SDS011;7949;48.726;9.102;2022-12-20T06:29:36;4.63;;;2.70;;
15697;SDS011;7949;48.726;9.102;2022-12-20T06:32:03;5.60;;;2.70;;
15697;SDS011;7949;48.726;9.102;2022-12-20T06:34:30;6.03;;;2.70;;
15697;SDS011;7949;48.726;9.102;2022-12-20T06:36:57;4.53;;;2.63;;
15697;SDS011;7949;48.726;9.102;2022-12-20T06:39:24;4.67;;;2.57;;
15697;SDS011;7949;48.726;9.102;2022-12-20T06:41:52;4.80;;;2.27;;
15697;SDS011;7949;48.726;9.102;2022-12-20T06:44:19;4.00;;;2.30;;
15697;SDS011;7949;48.726;9.102;2022-12-20T06:46:45;6.10;;;2.67;;
15697;SDS011;7949;48.726;9.102;2022-12-20T06:49:12;4.90;;;2.50;;
15697;SDS011;7949;48.726;9.102;2022-12-20T06:51:39;7.83;;;2.80;;
15697;SDS011;7949;48.726;9.102;2022-12-20T06:54:06;3.87;;;2.20;;
15697;SDS011;7949;48.726;9.102;2022-12-20T06:56:33;4.63;;;2.13;;
15697;SDS011;7949;48.726;9.102;2022-12-20T06:59:01;3.33;;;2.10;;
15697;SDS011;7949;48.726;9.102;2022-12-20T07:01:28;4.07;;;2.23;;
15697;SDS011;7949;48.726;9.102;2022-12-20T07:03:54;5.77;;;2.10;;
15697;SDS011;7949;48.726;9.102;2022-12-20T07:06:21;2.93;;;2.13;;
15697;SDS011;7949;48.726;9.102;2022-12-20T07:08:48;3.67;;;2.37;;
15697;SDS011;7949;48.726;9.102;2022-12-20T07:11:15;3.87;;;2.17;;
15697;SDS011;7949;48.726;9.102;2022-12-20T07:13:42;3.57;;;2.37;;
15697;SDS011;7949;48.726;9.102;2022-12-20T07:16:10;4.13;;;2.23;;
15697;SDS011;7949;48.726;9.102;2022-12-20T07:18:37;3.80;;;2.10;;
15697;SDS011;7949;48.726;9.102;2022-12-20T07:21:04;4.70;;;2.27;;
15697;SDS011;7949;48.726;9.102;2022-12-20T07:23:31;3.97;;;2.13;;
15697;SDS011;7949;48.726;9.102;2022-12-20T07:25:59;2.93;;;1.97;;
15697;SDS011;7949;48.726;9.102;2022-12-20T07:28:27;6.63;;;2.07;;
15697;SDS011;7949;48.726;9.102;2022-12-20T07:30:58;9.23;;;2.30;;
15697;SDS011;7949;48.726;9.102;2022-12-20T07:33:27;2.97;;;1.93;;
15697;SDS011;7949;48.726;9.102;2022-12-20T07:35:59;4.33;;;2.17;;
15697;SDS011;7949;48.726;9.102;2022-12-20T07:38:26;4.20;;;2.17;;
15697;SDS011;7949;48.726;9.102;2022-12-20T07:40:54;8.53;;;2.23;;
15697;SDS011;7949;48.726;9.102;2022-12-20T07:43:20;7.53;;;3.07;;
15697;SDS011;7949;48.726;9.102;2022-12-20T07:45:47;6.57;;;3.17;;
15697;SDS011;7949;48.726;9.102;2022-12-20T07:48:18;4.97;;;2.50;;
15697;SDS011;7949;48.726;9.102;2022-12-20T07:50:46;5.07;;;2.53;;
15697;SDS011;7949;48.726;9.102;2022-12-20T07:53:13;4.83;;;3.40;;
15697;SDS011;7949;48.726;9.102;2022-12-20T07:55:42;5.53;;;2.60;;
15697;SDS011;7949;48.726;9.102;2022-12-20T07:58:09;3.63;;;2.50;;
15697;SDS011;7949;48.726;9.102;2022-12-20T08:00:37;6.30;;;2.60;;
15697;SDS011;7949;48.726;9.102;2022-12-20T08:03:05;6.07;;;3.00;;
15697;SDS011;7949;48.726;9.102;2022-12-20T08:05:36;3.97;;;2.30;;
15697;SDS011;7949;48.726;9.102;2022-12-20T08:08:07;3.20;;;2.17;;
15697;SDS011;7949;48.726;9.102;2022-12-20T08:10:35;4.43;;;2.47;;
15697;SDS011;7949;48.726;9.102;2022-12-20T08:13:03;4.57;;;2.53;;
15697;SDS011;7949;48.726;9.102;2022-12-20T08:15:31;4.10;;;2.20;;
15697;SDS011;7949;48.726;9.102;2022-12-20T08:18:00;5.10;;;2.20;;
15697;SDS011;7949;48.726;9.102;2022-12-20T08:20:26;5.37;;;3.03;;
15697;SDS011;7949;48.726;9.102;2022-12-20T08:22:53;6.43;;;2.83;;
15697;SDS011;7949;48.726;9.102;2022-12-20T08:25:21;4.53;;;2.10;;
15697;SDS011;7949;48.726;9.102;2022-12-20T08:27:48;4.93;;;2.13;;
15697;SDS011;7949;48.726;9.102;2022-12-20T08:30:15;4.07;;;2.10;;
15697;SDS011;7949;48.726;9.102;2022-12-20T08:32:42;10.27;;;2.20;;
15697;SDS011;7949;48.726;9.102;2022-12-20T08:35:09;3.37;;;2.17;;
15697;SDS011;7949;48.726;9.102;2022-12-20T08:37:36;4.00;;;2.23;;
15697;SDS011;7949;48.726;9.102;2022-12-20T08:40:04;3.63;;;2.03;;
15697;SDS011;7949;48.726;9.102;2022-12-20T08:42:34;4.43;;;2.10;;
15697;SDS011;7949;48.726;9.102;2022-12-20T08:45:01;3.43;;;1.93;;
15697;SDS011;7949;48.726;9.102;2022-12-20T08:47:27;6.47;;;2.17;;
15697;SDS011;7949;48.726;9.102;2022-12-20T08:49:55;3.17;;;1.90;;
15697;SDS011;7949;48.726;9.102;2022-12-20T08:52:22;3.50;;;2.07;;
15697;SDS011;7949;48.726;9.102;2022-12-20T08:54:48;4.97;;;2.30;;
15697;SDS011;7949;48.726;9.102;2022-12-20T08:57:15;5.03;;;2.07;;
15697;SDS011;7949;48.726;9.102;2022-12-20T08:59:43;5.60;;;2.10;;
15697;SDS011;7949;48.726;9.102;2022-12-20T09:02:10;4.57;;;2.47;;
15697;SDS011;7949;48.726;9.102;2022-12-20T09:04:37;6.20;;;2.60;;
15697;SDS011;7949;48.726;9.102;2022-12-20T09:07:04;3.47;;;2.23;;
15697;SDS011;7949;48.726;9.102;2022-12-20T09:09:31;4.27;;;2.67;;
15697;SDS011;7949;48.726;9.102;2022-12-20T09:11:58;8.93;;;2.23;;
15697;SDS011;7949;48.726;9.102;2022-12-20T09:14:25;3.87;;;2.10;;
15697;SDS011;7949;48.726;9.102;2022-12-20T09:16:53;6.20;;;2.37;;
15697;SDS011;7949;48.726;9.102;2022-12-20T09:19:20;4.43;;;2.23;;
15697;SDS011;7949;48.726;9.102;2022-12-20T09:21:47;6.63;;;2.53;;
15697;SDS011;7949;48.726;9.102;2022-12-20T09:24:14;3.83;;;2.27;;
15697;SDS011;7949;48.726;9.102;2022-12-20T09:26:41;4.87;;;2.57;;
15697;SDS011;7949;48.726;9.102;2022-12-20T09:29:08;5.23;;;2.40;;
15697;SDS011;7949;48.726;9.102;2022-12-20T09:31:35;6.17;;;2.60;;
15697;SDS011;7949;48.726;9.102;2022-12-20T09:34:03;4.80;;;2.33;;
15697;SDS011;7949;48.726;9.102;2022-12-20T09:36:30;4.53;;;2.20;;
15697;SDS011;7949;48.726;9.102;2022-12-20T09:38:57;4.87;;;2.60;;
15697;SDS011;7949;48.726;9.102;2022-12-20T09:41:25;4.20;;;2.30;;
15697;SDS011;7949;48.726;9.102;2022-12-20T09:43:57;4.40;;;2.30;;
15697;SDS011;7949;48.726;9.102;2022-12-20T09:46:25;4.10;;;2.27;;
15697;SDS011;7949;48.726;9.102;2022-12-20T09:48:53;5.47;;;2.57;;
15697;SDS011;7949;48.726;9.102;2022-12-20T09:51:25;7.13;;;2.27;;
15697;SDS011;7949;48.726;9.102;2022-12-20T09:54:06;6.67;;;2.67;;
15697;SDS011;7949;48.726;9.102;2022-12-20T09:56:44;3.63;;;1.83;;
15697;SDS011;7949;48.726;9.102;2022-12-20T09:59:17;4.27;;;2.13;;
15697;SDS011;7949;48.726;9.102;2022-12-20T10:01:45;3.57;;;2.40;;
15697;SDS011;7949;48.726;9.102;2022-12-20T10:04:15;3.30;;;1.83;;
15697;SDS011;7949;48.726;9.102;2022-12-20T10:06:50;3.67;;;2.10;;
15697;SDS011;7949;48.726;9.102;2022-12-20T10:09:42;5.50;;;1.90;;
15697;SDS011;7949;48.726;9.102;2022-12-20T10:12:30;6.53;;;2.47;;
15697;SDS011;7949;48.726;9.102;2022-12-20T10:15:07;4.00;;;2.07;;
15697;SDS011;7949;48.726;9.102;2022-12-20T10:17:45;3.43;;;1.97;;
15697;SDS011;7949;48.726;9.102;2022-12-20T10:20:32;5.77;;;2.50;;
15697;SDS011;7949;48.726;9.102;2022-12-20T10:23:08;3.87;;;2.20;;
15697;SDS011;7949;48.726;9.102;2022-12-20T10:25:40;3.70;;;2.20;;
15697;SDS011;7949;48.726;9.102;2022-12-20T10:28:10;4.33;;;2.10;;
15697;SDS011;7949;48.726;9.102;2022-12-20T10:30:40;4.60;;;1.77;;
15697;SDS011;7949;48.726;9.102;2022-12-20T10:33:11;3.53;;;1.60;;
15697;SDS011;7949;48.726;9.102;2022-12-20T10:35:44;4.77;;;2.50;;
15697;SDS011;7949;48.726;9.102;2022-12-20T10:38:13;6.47;;;1.97;;
15697;SDS011;7949;48.726;9.102;2022-12-20T10:40:42;4.13;;;1.90;;
15697;SDS011;7949;48.726;9.102;2022-12-20T10:43:13;3.77;;;2.00;;
15697;SDS011;7949;48.726;9.102;2022-12-20T10:45:42;4.17;;;2.10;;
15697;SDS011;7949;48.726;9.102;2022-12-20T10:48:25;4.80;;;2.27;;
15697;SDS011;7949;48.726;9.102;2022-12-20T10:50:56;3.63;;;2.10;;
15697;SDS011;7949;48.726;9.102;2022-12-20T10:53:28;2.80;;;1.93;;
15697;SDS011;7949;48.726;9.102;2022-12-20T10:56:08;5.77;;;1.80;;
15697;SDS011;7949;48.726;9.102;2022-12-20T10:58:38;4.27;;;2.33;;
15697;SDS011;7949;48.726;9.102;2022-12-20T11:01:10;7.87;;;2.30;;
15697;SDS011;7949;48.726;9.102;2022-12-20T11:03:48;6.00;;;2.53;;
15697;SDS011;7949;48.726;9.102;2022-12-20T11:06:21;7.87;;;1.97;;
15697;SDS011;7949;48.726;9.102;2022-12-20T11:08:51;6.23;;;2.13;;
15697;SDS011;7949;48.726;9.102;2022-12-20T11:11:18;5.17;;;2.30;;
15697;SDS011;7949;48.726;9.102;2022-12-20T11:13:47;2.73;;;2.00;;
15697;SDS011;7949;48.726;9.102;2022-12-20T11:16:25;6.30;;;2.03;;
15697;SDS011;7949;48.726;9.102;2022-12-20T11:19:02;2.90;;;1.80;;
15697;SDS011;7949;48.726;9.102;2022-12-20T11:21:38;6.33;;;1.97;;
15697;SDS011;7949;48.726;9.102;2022-12-20T11:24:12;2.67;;;1.60;;
15697;SDS011;7949;48.726;9.102;2022-12-20T11:26:56;5.17;;;1.90;;
15697;SDS011;7949;48.726;9.102;2022-12-20T11:29:36;6.47;;;2.27;;
15697;SDS011;7949;48.726;9.102;2022-12-20T11:32:19;3.33;;;1.67;;
15697;SDS011;7949;48.726;9.102;2022-12-20T11:34:58;3.23;;;1.70;;
15697;SDS011;7949;48.726;9.102;2022-12-20T11:37:35;3.60;;;1.87;;
15697;SDS011;7949;48.726;9.102;2022-12-20T11:40:17;4.53;;;1.90;;
15697;SDS011;7949;48.726;9.102;2022-12-20T11:42:59;7.87;;;2.10;;
15697;SDS011;7949;48.726;9.102;2022-12-20T11:45:41;4.40;;;1.70;;
15697;SDS011;7949;48.726;9.102;2022-12-20T11:48:24;2.87;;;1.40;;
15697;SDS011;7949;48.726;9.102;2022-12-20T11:51:04;3.83;;;2.33;;
15697;SDS011;7949;48.726;9.102;2022-12-20T11:53:41;2.90;;;1.80;;
15697;SDS011;7949;48.726;9.102;2022-12-20T11:56:17;3.63;;;2.10;;
15697;SDS011;7949;48.726;9.102;2022-12-20T11:58:49;3.67;;;2.03;;
15697;SDS011;7949;48.726;9.102;2022-12-20T12:01:19;3.70;;;1.63;;
15697;SDS011;7949;48.726;9.102;2022-12-20T12:03:54;5.37;;;1.90;;
15697;SDS011;7949;48.726;9.102;2022-12-20T12:06:30;4.00;;;1.43;;
15697;SDS011;7949;48.726;9.102;2022-12-20T12:09:13;3.63;;;1.90;;
15697;SDS011;7949;48.726;9.102;2022-12-20T12:11:46;4.47;;;1.80;;
15697;SDS011;7949;48.726;9.102;2022-12-20T12:14:19;3.03;;;1.70;;
15697;SDS011;7949;48.726;9.102;2022-12-20T12:16:56;5.40;;;1.50;;
15697;SDS011;7949;48.726;9.102;2022-12-20T12:19:29;4.43;;;1.97;;
15697;SDS011;7949;48.726;9.102;2022-12-20T12:22:00;2.70;;;1.70;;
15697;SDS011;7949;48.726;9.102;2022-12-20T12:24:32;3.47;;;1.50;;
15697;SDS011;7949;48.726;9.102;2022-12-20T12:27:06;4.13;;;1.77;;
15697;SDS011;7949;48.726;9.102;2022-12-20T12:29:40;3.37;;;1.57;;
15697;SDS011;7949;48.726;9.102;2022-12-20T12:32:09;3.37;;;1.30;;
15697;SDS011;7949;48.726;9.102;2022-12-20T12:34:46;2.20;;;1.50;;
15697;SDS011;7949;48.726;9.102;2022-12-20T12:37:36;3.50;;;1.60;;
15697;SDS011;7949;48.726;9.102;2022-12-20T12:40:24;3.03;;;1.80;;
15697;SDS011;7949;48.726;9.102;2022-12-20T12:43:18;4.33;;;1.80;;
15697;SDS011;7949;48.726;9.102;2022-12-20T12:46:03;4.07;;;1.80;;
15697;SDS011;7949;48.726;9.102;2022-12-20T12:48:38;3.37;;;1.73;;
15697;SDS011;7949;48.726;9.102;2022-12-20T12:51:08;3.60;;;1.90;;
15697;SDS011;7949;48.726;9.102;2022-12-20T12:53:40;4.70;;;1.60;;
15697;SDS011;7949;48.726;9.102;2022-12-20T12:59:18;4.33;;;2.00;;
15697;SDS011;7949;48.726;9.102;2022-12-20T13:01:49;2.57;;;1.73;;
15697;SDS011;7949;48.726;9.102;2022-12-20T13:04:21;5.00;;;1.67;;
15697;SDS011;7949;48.726;9.102;2022-12-20T13:06:54;2.53;;;1.80;;
15697;SDS011;7949;48.726;9.102;2022-12-20T13:18:20;3.20;;;1.20;;
15697;SDS011;7949;48.726;9.102;2022-12-20T13:29:59;4.60;;;1.60;;
15697;SDS011;7949;48.726;9.102;2022-12-20T13:36:00;4.90;;;1.57;;
15697;SDS011;7949;48.726;9.102;2022-12-20T13:38:37;3.27;;;1.60;;
15697;SDS011;7949;48.726;9.102;2022-12-20T13:41:18;3.80;;;1.93;;
15697;SDS011;7949;48.726;9.102;2022-12-20T13:43:52;3.67;;;1.70;;
15697;SDS011;7949;48.726;9.102;2022-12-20T13:46:21;3.37;;;1.60;;
15697;SDS011;7949;48.726;9.102;2022-12-20T13:48:53;4.13;;;1.93;;
15697;SDS011;7949;48.726;9.102;2022-12-20T13:51:29;2.83;;;1.50;;
15697;SDS011;7949;48.726;9.102;2022-12-20T13:53:57;2.80;;;1.53;;
15697;SDS011;7949;48.726;9.102;2022-12-20T13:56:31;4.20;;;1.87;;
15697;SDS011;7949;48.726;9.102;2022-12-20T13:59:03;4.30;;;1.67;;
15697;SDS011;7949;48.726;9.102;2022-12-20T14:01:32;3.93;;;1.93;;
15697;SDS011;7949;48.726;9.102;2022-12-20T14:04:02;3.37;;;1.87;;
15697;SDS011;7949;48.726;9.102;2022-12-20T14:06:32;2.70;;;1.60;;
15697;SDS011;7949;48.726;9.102;2022-12-20T14:08:59;3.13;;;1.30;;
15697;SDS011;7949;48.726;9.102;2022-12-20T14:11:27;2.03;;;1.37;;
15697;SDS011;7949;48.726;9.102;2022-12-20T14:13:54;3.80;;;1.33;;
15697;SDS011;7949;48.726;9.102;2022-12-20T14:16:23;3.40;;;1.47;;
15697;SDS011;7949;48.726;9.102;2022-12-20T14:18:59;4.60;;;1.20;;
15697;SDS011;7949;48.726;9.102;2022-12-20T14:21:31;3.47;;;1.50;;
15697;SDS011;7949;48.726;9.102;2022-12-20T14:24:03;5.47;;;1.57;;
15697;SDS011;7949;48.726;9.102;2022-12-20T14:26:32;3.43;;;1.63;;
15697;SDS011;7949;48.726;9.102;2022-12-20T14:29:08;6.57;;;2.00;;
15697;SDS011;7949;48.726;9.102;2022-12-20T14:31:37;4.13;;;1.87;;
15697;SDS011;7949;48.726;9.102;2022-12-20T14:34:10;6.73;;;1.90;;
15697;SDS011;7949;48.726;9.102;2022-12-20T14:36:43;4.87;;;1.60;;
15697;SDS011;7949;48.726;9.102;2022-12-20T14:39:22;3.90;;;1.93;;
15697;SDS011;7949;48.726;9.102;2022-12-20T14:41:55;5.40;;;2.10;;
15697;SDS011;7949;48.726;9.102;2022-12-20T14:44:23;3.70;;;1.80;;
15697;SDS011;7949;48.726;9.102;2022-12-20T14:46:52;3.13;;;1.77;;
15697;SDS011;7949;48.726;9.102;2022-12-20T14:49:22;7.03;;;2.13;;
15697;SDS011;7949;48.726;9.102;2022-12-20T14:52:02;4.43;;;1.80;;
15697;SDS011;7949;48.726;9.102;2022-12-20T14:54:31;3.67;;;2.23;;
15697;SDS011;7949;48.726;9.102;2022-12-20T14:57:00;5.53;;;2.07;;
15697;SDS011;7949;48.726;9.102;2022-12-20T14:59:27;2.13;;;1.60;;
15697;SDS011;7949;48.726;9.102;2022-12-20T15:01:55;8.07;;;2.23;;
15697;SDS011;7949;48.726;9.102;2022-12-20T15:04:23;5.30;;;1.90;;
15697;SDS011;7949;48.726;9.102;2022-12-20T15:06:57;4.17;;;1.83;;
15697;SDS011;7949;48.726;9.102;2022-12-20T15:09:24;4.00;;;1.70;;
15697;SDS011;7949;48.726;9.102;2022-12-20T15:11:52;3.13;;;1.60;;
15697;SDS011;7949;48.726;9.102;2022-12-20T15:14:30;4.13;;;1.90;;
15697;SDS011;7949;48.726;9.102;2022-12-20T15:17:00;3.60;;;2.03;;
15697;SDS011;7949;48.726;9.102;2022-12-20T15:19:29;3.23;;;1.60;;
15697;SDS011;7949;48.726;9.102;2022-12-20T15:21:58;7.27;;;2.20;;
15697;SDS011;7949;48.726;9.102;2022-12-20T15:24:26;7.80;;;2.20;;
15697;SDS011;7949;48.726;9.102;2022-12-20T15:26:54;5.40;;;2.10;;
15697;SDS011;7949;48.726;9.102;2022-12-20T15:29:22;7.53;;;2.67;;
15697;SDS011;7949;48.726;9.102;2022-12-20T15:31:56;4.40;;;2.03;;
15697;SDS011;7949;48.726;9.102;2022-12-20T15:34:29;5.00;;;2.03;;
15697;SDS011;7949;48.726;9.102;2022-12-20T15:37:01;5.57;;;2.23;;
15697;SDS011;7949;48.726;9.102;2022-12-20T15:39:29;3.60;;;2.10;;
15697;SDS011;7949;48.726;9.102;2022-12-20T15:41:57;3.80;;;1.80;;